createdAt,value
2018-10-06T00:01:44.961Z,19.40
2018-10-06T00:04:13.035Z,19.20
2018-10-06T00:06:41.168Z,19.30
2018-10-06T00:09:09.371Z,19.30
2018-10-06T00:11:37.500Z,19.50
2018-10-06T00:14:05.697Z,19.10
2018-10-06T00:16:33.844Z,19.30
2018-10-06T00:19:02.355Z,19.20
2018-10-06T00:21:30.500Z,19.30
2018-10-06T00:23:58.647Z,19.40
2018-10-06T00:26:26.748Z,19.40
2018-10-06T00:28:54.868Z,19.40
2018-10-06T00:31:22.996Z,19.10
2018-10-06T00:33:51.122Z,19.30
2018-10-06T00:36:20.497Z,19.40
2018-10-06T00:38:48.604Z,19.30
2018-10-06T00:41:17.129Z,19.20
2018-10-06T00:43:45.254Z,19.30
2018-10-06T00:46:13.379Z,19.40
2018-10-06T00:48:41.948Z,19.30
2018-10-06T00:51:10.845Z,19.10
2018-10-06T00:53:39.016Z,19.00
2018-10-06T00:56:07.150Z,18.50
2018-10-06T00:58:36.083Z,18.60
2018-10-06T01:01:04.216Z,18.70
2018-10-06T01:03:32.384Z,18.60
2018-10-06T01:06:01.079Z,18.80
2018-10-06T01:08:29.341Z,18.60
2018-10-06T01:10:57.469Z,18.70
2018-10-06T01:13:25.600Z,18.60
2018-10-06T01:15:53.705Z,18.70
2018-10-06T01:18:21.819Z,18.80
2018-10-06T01:20:50.176Z,18.80
2018-10-06T01:23:18.308Z,18.30
2018-10-06T01:25:46.815Z,18.30
2018-10-06T01:28:14.983Z,18.10
2018-10-06T01:30:43.104Z,18.40
2018-10-06T01:33:11.236Z,18.50
2018-10-06T01:35:39.383Z,18.70
2018-10-06T01:38:07.531Z,18.70
2018-10-06T01:40:35.662Z,18.60
2018-10-06T01:43:03.916Z,18.20
2018-10-06T01:45:32.480Z,18.50
2018-10-06T01:48:00.601Z,18.40
2018-10-06T01:50:29.012Z,18.20
2018-10-06T01:52:57.138Z,18.10
2018-10-06T01:55:26.053Z,17.80
2018-10-06T01:57:54.888Z,17.60
2018-10-06T02:00:23.013Z,17.50
2018-10-06T02:02:51.373Z,18.00
2018-10-06T02:05:20.400Z,18.20
2018-10-06T02:07:48.580Z,18.30
2018-10-06T02:10:16.758Z,18.10
2018-10-06T02:12:44.885Z,18.20
2018-10-06T02:15:13.116Z,18.20
2018-10-06T02:17:41.240Z,18.50
2018-10-06T02:20:09.589Z,18.20
2018-10-06T02:22:37.705Z,18.30
2018-10-06T02:25:06.432Z,18.00
2018-10-06T02:27:34.807Z,18.30
2018-10-06T02:30:03.042Z,18.10
2018-10-06T02:32:31.056Z,17.90
2018-10-06T02:34:59.180Z,17.70
2018-10-06T02:37:28.127Z,17.80
2018-10-06T02:39:56.251Z,17.60
2018-10-06T02:42:24.517Z,17.60
2018-10-06T02:44:52.660Z,17.30
2018-10-06T02:47:20.778Z,17.50
2018-10-06T02:49:48.896Z,17.40
2018-10-06T02:52:17.018Z,17.40
2018-10-06T02:54:45.522Z,17.60
2018-10-06T02:57:13.892Z,17.60
2018-10-06T02:59:42.027Z,17.60
2018-10-06T03:02:10.266Z,17.50
2018-10-06T03:04:38.382Z,17.60
2018-10-06T03:07:06.528Z,17.80
2018-10-06T03:09:34.657Z,18.00
2018-10-06T03:12:02.781Z,18.20
2018-10-06T03:14:30.945Z,18.20
2018-10-06T03:16:59.090Z,18.20
2018-10-06T03:19:27.462Z,18.30
2018-10-06T03:21:55.564Z,18.30
2018-10-06T03:24:23.704Z,18.20
2018-10-06T03:26:51.944Z,18.00
2018-10-06T03:29:20.661Z,17.70
2018-10-06T03:31:48.787Z,17.20
2018-10-06T03:34:16.908Z,17.30
2018-10-06T03:36:45.328Z,17.40
2018-10-06T03:39:13.451Z,17.20
2018-10-06T03:41:41.592Z,17.00
2018-10-06T03:44:09.734Z,17.20
2018-10-06T03:46:38.068Z,17.10
2018-10-06T03:49:06.200Z,17.20
2018-10-06T03:51:34.308Z,17.50
2018-10-06T03:54:02.495Z,17.60
2018-10-06T03:56:30.556Z,17.90
2018-10-06T03:58:58.908Z,18.00
2018-10-06T04:01:27.064Z,17.70
2018-10-06T04:03:55.180Z,17.50
2018-10-06T04:06:23.289Z,17.50
2018-10-06T04:08:51.421Z,17.10
2018-10-06T04:11:19.551Z,16.80
2018-10-06T04:13:47.677Z,16.60
2018-10-06T04:16:15.844Z,16.50
2018-10-06T04:18:43.959Z,16.70
2018-10-06T04:21:12.839Z,16.70
2018-10-06T04:23:40.988Z,16.90
2018-10-06T04:26:09.119Z,17.00
2018-10-06T04:28:37.236Z,17.20
2018-10-06T04:31:05.744Z,17.20
2018-10-06T04:33:34.228Z,17.20
2018-10-06T04:36:02.475Z,17.50
2018-10-06T04:38:30.633Z,17.50
2018-10-06T04:40:58.752Z,17.50
2018-10-06T04:43:26.875Z,17.50
2018-10-06T04:45:55.025Z,17.60
2018-10-06T04:48:23.208Z,17.70
2018-10-06T04:50:51.340Z,17.70
2018-10-06T04:53:19.555Z,17.40
2018-10-06T04:55:47.589Z,17.20
2018-10-06T04:58:15.736Z,17.20
2018-10-06T05:00:43.845Z,17.20
2018-10-06T05:03:12.772Z,16.80
2018-10-06T05:05:40.969Z,17.00
2018-10-06T05:08:09.074Z,17.00
2018-10-06T05:10:37.203Z,16.70
2018-10-06T05:13:05.378Z,16.60
2018-10-06T05:15:33.541Z,16.70
2018-10-06T05:18:01.714Z,16.90
2018-10-06T05:20:29.900Z,17.40
2018-10-06T05:22:58.045Z,17.40
2018-10-06T05:25:26.168Z,17.60
2018-10-06T05:27:54.365Z,17.70
2018-10-06T05:30:22.652Z,17.80
2018-10-06T05:32:50.835Z,17.90
2018-10-06T05:35:18.938Z,17.90
2018-10-06T05:37:47.256Z,17.40
2018-10-06T05:40:15.680Z,17.60
2018-10-06T05:42:43.857Z,17.50
2018-10-06T05:45:12.297Z,17.50
2018-10-06T05:47:40.408Z,17.60
2018-10-06T05:50:08.655Z,17.60
2018-10-06T05:52:36.807Z,17.40
2018-10-06T05:55:05.133Z,17.30
2018-10-06T05:57:33.707Z,17.50
2018-10-06T06:00:01.862Z,17.50
2018-10-06T06:02:30.042Z,17.30
2018-10-06T06:04:58.197Z,17.60
2018-10-06T06:07:26.548Z,17.80
2018-10-06T06:09:55.106Z,18.00
2018-10-06T06:12:23.204Z,18.10
2018-10-06T06:14:52.509Z,18.20
2018-10-06T06:17:21.045Z,18.30
2018-10-06T06:19:49.268Z,18.40
2018-10-06T06:22:17.400Z,18.50
2018-10-06T06:24:45.993Z,18.70
2018-10-06T06:27:14.105Z,18.70
2018-10-06T06:29:42.274Z,18.70
2018-10-06T06:32:10.435Z,18.60
2018-10-06T06:34:38.507Z,18.50
2018-10-06T06:37:06.620Z,18.20
2018-10-06T06:39:34.736Z,18.00
2018-10-06T06:42:03.285Z,17.90
2018-10-06T06:44:31.911Z,17.50
2018-10-06T06:46:59.855Z,17.70
2018-10-06T06:49:27.968Z,17.70
2018-10-06T06:51:56.109Z,18.20
2018-10-06T06:54:24.241Z,18.40
2018-10-06T06:56:52.649Z,18.30
2018-10-06T06:59:21.102Z,18.50
2018-10-06T07:01:49.714Z,18.60
2018-10-06T07:04:18.174Z,18.70
2018-10-06T07:06:46.417Z,18.70
2018-10-06T07:09:14.897Z,18.90
2018-10-06T07:11:43.413Z,19.30
2018-10-06T07:14:11.552Z,19.20
2018-10-06T07:16:39.706Z,19.30
2018-10-06T07:19:07.914Z,19.70
2018-10-06T07:21:36.066Z,20.00
2018-10-06T07:24:04.928Z,20.20
2018-10-06T07:26:33.201Z,19.90
2018-10-06T07:29:01.353Z,20.00
2018-10-06T07:31:29.510Z,19.60
2018-10-06T07:33:57.636Z,19.80
2018-10-06T07:36:25.773Z,19.70
2018-10-06T07:38:53.932Z,20.00
2018-10-06T07:41:22.102Z,20.00
2018-10-06T07:43:50.258Z,19.80
2018-10-06T07:46:18.730Z,20.00
2018-10-06T07:48:46.968Z,20.00
2018-10-06T07:51:15.214Z,20.10
2018-10-06T07:53:43.375Z,20.20
2018-10-06T07:56:11.523Z,20.10
2018-10-06T07:58:39.669Z,20.30
2018-10-06T08:01:07.801Z,19.90
2018-10-06T08:03:35.965Z,20.20
2018-10-06T08:06:04.110Z,20.20
2018-10-06T08:08:32.280Z,20.70
2018-10-06T08:11:00.408Z,20.60
2018-10-06T08:13:28.630Z,20.70
2018-10-06T08:15:56.768Z,20.80
2018-10-06T08:18:24.932Z,20.90
2018-10-06T08:20:53.099Z,21.10
2018-10-06T08:23:21.614Z,21.30
2018-10-06T08:25:49.966Z,21.20
2018-10-06T08:28:18.109Z,21.30
2018-10-06T08:30:46.505Z,21.60
2018-10-06T08:33:14.643Z,21.70
2018-10-06T08:35:43.129Z,21.50
2018-10-06T08:38:11.278Z,21.80
2018-10-06T08:40:39.401Z,21.90
2018-10-06T08:43:07.622Z,21.50
2018-10-06T08:45:35.749Z,22.30
2018-10-06T08:48:04.053Z,22.70
2018-10-06T08:50:32.196Z,23.50
2018-10-06T08:53:00.334Z,24.90
2018-10-06T08:55:28.453Z,25.90
2018-10-06T08:57:56.704Z,26.40
2018-10-06T09:00:24.840Z,26.70
2018-10-06T09:02:52.998Z,27.60
2018-10-06T09:05:22.004Z,29.30
2018-10-06T09:07:50.548Z,31.10
2018-10-06T09:10:18.813Z,32.60
2018-10-06T09:12:47.344Z,32.60
2018-10-06T09:15:16.417Z,33.50
2018-10-06T09:20:13.069Z,35.40
2018-10-06T09:22:41.206Z,35.60
2018-10-06T09:25:09.334Z,35.60
2018-10-06T09:27:37.469Z,35.40
2018-10-06T09:30:05.643Z,35.00
2018-10-06T09:32:34.317Z,34.80
2018-10-06T09:37:30.390Z,34.80
2018-10-06T09:39:58.761Z,34.90
2018-10-06T09:42:27.840Z,34.30
2018-10-06T09:44:56.308Z,34.40
2018-10-06T09:47:24.586Z,34.60
2018-10-06T09:49:52.705Z,36.30
2018-10-06T09:52:21.568Z,35.90
2018-10-06T09:54:49.720Z,34.30
2018-10-06T09:57:18.190Z,34.00
2018-10-06T09:59:46.745Z,33.90
2018-10-06T10:02:20.392Z,33.60
2018-10-06T10:04:48.526Z,33.20
2018-10-06T10:07:16.656Z,34.00
2018-10-06T10:09:44.921Z,34.10
2018-10-06T10:12:13.049Z,34.90
2018-10-06T10:14:41.466Z,33.30
2018-10-06T10:17:09.727Z,34.00
2018-10-06T10:19:37.750Z,34.40
2018-10-06T10:22:06.056Z,34.70
2018-10-06T10:24:34.109Z,35.80
2018-10-06T10:27:02.606Z,35.20
2018-10-06T10:29:30.726Z,35.70
2018-10-06T10:31:58.870Z,35.30
2018-10-06T10:34:27.069Z,34.90
2018-10-06T10:36:55.569Z,33.60
2018-10-06T10:39:24.013Z,34.10
2018-10-06T10:54:12.528Z,38.50
2018-10-06T10:56:40.682Z,38.10
2018-10-06T11:06:32.690Z,38.10
2018-10-06T11:21:21.406Z,35.90
2018-10-06T11:23:49.548Z,36.80
2018-10-06T11:26:18.688Z,36.90
2018-10-06T11:28:47.060Z,36.50
2018-10-06T11:31:15.176Z,36.10
2018-10-06T11:33:43.330Z,35.90
2018-10-06T11:36:11.461Z,35.90
2018-10-06T11:38:39.613Z,35.60
2018-10-06T11:41:07.841Z,35.30
2018-10-06T11:43:36.370Z,35.10
2018-10-06T11:46:04.533Z,34.30
2018-10-06T11:48:33.048Z,34.60
2018-10-06T11:51:01.393Z,35.70
2018-10-06T11:53:29.536Z,35.50
2018-10-06T11:58:25.673Z,38.30
2018-10-06T12:03:22.092Z,37.60
2018-10-06T12:18:10.332Z,36.60
2018-10-06T12:20:38.529Z,36.80
2018-10-06T12:23:06.721Z,37.10
2018-10-06T12:25:34.884Z,37.10
2018-10-06T12:28:03.238Z,38.20
2018-10-06T12:30:31.985Z,37.50
2018-10-06T12:33:00.121Z,38.40
2018-10-06T12:35:28.409Z,39.10
2018-10-06T12:37:56.462Z,39.30
2018-10-06T12:40:24.609Z,38.90
2018-10-06T12:42:52.770Z,39.10
2018-10-06T12:45:21.992Z,37.40
2018-10-06T12:47:50.552Z,36.50
2018-10-06T12:50:18.693Z,36.50
2018-10-06T12:52:46.825Z,36.10
2018-10-06T12:55:14.977Z,36.20
2018-10-06T12:57:43.148Z,35.80
2018-10-06T13:00:11.790Z,35.10
2018-10-06T13:02:40.629Z,35.00
2018-10-06T13:05:08.798Z,35.50
2018-10-06T13:07:36.932Z,34.30
2018-10-06T13:10:05.084Z,34.50
2018-10-06T13:12:33.269Z,34.60
2018-10-06T13:15:01.453Z,35.90
2018-10-06T13:17:29.590Z,36.40
2018-10-06T13:19:57.741Z,37.20
2018-10-06T13:22:26.173Z,37.20
2018-10-06T13:24:54.284Z,37.10
2018-10-06T13:27:22.432Z,36.50
2018-10-06T13:29:50.564Z,36.20
2018-10-06T13:32:18.952Z,36.40
2018-10-06T13:34:47.098Z,36.50
2018-10-06T13:37:15.239Z,36.60
2018-10-06T13:39:43.368Z,35.90
2018-10-06T13:42:17.901Z,34.60
2018-10-06T13:47:14.454Z,32.50
2018-10-06T13:54:38.518Z,33.20
2018-10-06T14:09:26.539Z,32.80
2018-10-06T14:11:54.705Z,33.10
2018-10-06T14:14:23.195Z,33.20
2018-10-06T14:16:51.705Z,33.60
2018-10-06T14:19:20.509Z,32.90
2018-10-06T14:21:48.741Z,33.10
2018-10-06T14:24:16.891Z,33.30
2018-10-06T14:26:45.042Z,33.30
2018-10-06T14:29:13.523Z,33.40
2018-10-06T14:31:41.685Z,33.40
2018-10-06T14:34:09.816Z,32.70
2018-10-06T14:36:37.978Z,31.50
2018-10-06T14:39:08.149Z,31.40
2018-10-06T14:41:36.284Z,31.50
2018-10-06T14:44:04.426Z,31.60
2018-10-06T14:46:33.173Z,30.30
2018-10-06T14:49:01.307Z,30.60
2018-10-06T14:51:30.027Z,30.80
2018-10-06T14:53:58.174Z,31.00
2018-10-06T14:56:26.334Z,31.00
2018-10-06T14:58:54.478Z,30.70
2018-10-06T15:01:22.648Z,31.30
2018-10-06T15:03:50.866Z,31.10
2018-10-06T15:06:18.946Z,31.40
2018-10-06T15:08:47.173Z,31.40
2018-10-06T15:11:15.310Z,30.80
2018-10-06T15:13:43.456Z,30.90
2018-10-06T15:16:11.590Z,31.10
2018-10-06T15:18:39.725Z,30.80
2018-10-06T15:21:08.107Z,31.20
2018-10-06T15:23:36.291Z,30.90
2018-10-06T15:26:04.416Z,30.50
2018-10-06T15:28:33.003Z,30.70
2018-10-06T15:31:01.504Z,30.70
2018-10-06T15:33:29.679Z,30.70
2018-10-06T15:35:58.769Z,30.60
2018-10-06T15:38:33.229Z,30.10
2018-10-06T15:41:01.377Z,29.00
2018-10-06T15:43:29.583Z,28.60
2018-10-06T15:45:57.975Z,28.80
2018-10-06T15:48:26.187Z,28.90
2018-10-06T15:53:22.310Z,29.70
2018-10-06T15:55:50.566Z,29.70
2018-10-06T15:58:18.742Z,29.70
2018-10-06T16:00:46.967Z,29.90
2018-10-06T16:03:15.105Z,30.00
2018-10-06T16:05:43.276Z,30.30
2018-10-06T16:08:11.463Z,30.10
2018-10-06T16:13:07.613Z,29.90
2018-10-06T16:15:35.769Z,29.90
2018-10-06T16:18:03.924Z,30.10
2018-10-06T16:20:32.079Z,29.90
2018-10-06T16:23:00.216Z,29.90
2018-10-06T16:25:28.441Z,29.90
2018-10-06T16:27:56.585Z,29.80
2018-10-06T16:30:24.788Z,29.90
2018-10-06T16:32:52.969Z,29.70
2018-10-06T16:35:21.089Z,29.80
2018-10-06T16:37:49.425Z,29.80
2018-10-06T16:40:17.721Z,29.80
2018-10-06T16:42:45.980Z,29.70
2018-10-06T16:45:14.156Z,29.60
2018-10-06T16:47:42.306Z,29.40
2018-10-06T16:50:10.934Z,29.40
2018-10-06T16:52:39.296Z,29.40
2018-10-06T16:55:07.580Z,29.40
2018-10-06T16:57:35.705Z,29.30
2018-10-06T17:00:03.959Z,29.20
2018-10-06T17:02:32.025Z,29.00
2018-10-06T17:05:00.172Z,28.80
2018-10-06T17:07:28.305Z,28.80
2018-10-06T17:09:56.489Z,28.40
2018-10-06T17:12:24.651Z,28.40
2018-10-06T17:14:52.804Z,28.20
2018-10-06T17:17:20.919Z,28.10
2018-10-06T17:19:49.036Z,28.00
2018-10-06T17:22:17.188Z,28.00
2018-10-06T17:24:45.319Z,27.70
2018-10-06T17:29:41.399Z,27.40
2018-10-06T17:42:01.386Z,27.00
2018-10-06T17:44:29.590Z,26.90
2018-10-06T17:49:25.572Z,26.70
2018-10-06T17:51:53.689Z,26.60
2018-10-06T17:54:22.599Z,26.40
2018-10-06T17:56:50.740Z,26.30
2018-10-06T17:59:18.860Z,26.20
2018-10-06T18:01:47.092Z,26.20
2018-10-06T18:04:15.220Z,26.10
2018-10-06T18:06:43.439Z,26.00
2018-10-06T18:09:11.574Z,25.80
2018-10-06T18:11:39.680Z,25.70
2018-10-06T18:14:07.836Z,25.70
2018-10-06T18:16:35.998Z,25.70
2018-10-06T18:19:04.105Z,25.60
2018-10-06T18:21:32.261Z,25.60
2018-10-06T18:24:00.366Z,25.50
2018-10-06T18:26:28.513Z,25.50
2018-10-06T18:28:56.678Z,25.40
2018-10-06T18:31:25.213Z,25.40
2018-10-06T18:33:53.683Z,25.30
2018-10-06T18:36:22.839Z,25.40
2018-10-06T18:38:51.525Z,25.20
2018-10-06T18:41:19.644Z,25.30
2018-10-06T18:43:48.061Z,25.40
2018-10-06T18:46:16.084Z,25.40
2018-10-06T18:48:44.467Z,25.50
2018-10-06T18:51:12.981Z,25.30
2018-10-06T18:53:43.770Z,23.80
2018-10-06T18:56:11.917Z,25.30
2018-10-06T18:58:40.149Z,25.30
2018-10-06T19:01:08.310Z,24.90
2018-10-06T19:03:36.621Z,24.80
2018-10-06T19:06:05.022Z,24.70
2018-10-06T19:08:33.132Z,24.70
2018-10-06T19:11:01.519Z,24.30
2018-10-06T19:13:29.704Z,24.10
2018-10-06T19:15:58.127Z,24.30
2018-10-06T19:18:26.314Z,24.40
2018-10-06T19:20:54.780Z,24.50
2018-10-06T19:23:22.883Z,24.50
2018-10-06T19:25:51.155Z,24.50
2018-10-06T19:28:19.248Z,24.20
2018-10-06T19:30:47.444Z,24.40
2018-10-06T19:33:15.560Z,24.40
2018-10-06T19:35:43.692Z,24.60
2018-10-06T19:38:12.260Z,24.50
2018-10-06T19:40:40.420Z,24.50
2018-10-06T19:43:09.153Z,24.50
2018-10-06T19:45:37.433Z,24.50
2018-10-06T19:48:05.563Z,24.50
2018-10-06T19:50:33.735Z,24.70
2018-10-06T19:53:02.347Z,24.60
2018-10-06T19:55:30.536Z,24.60
2018-10-06T19:57:58.750Z,24.70
2018-10-06T20:00:27.299Z,24.10
2018-10-06T20:02:55.469Z,24.00
2018-10-06T20:05:23.982Z,24.10
2018-10-06T20:07:52.526Z,24.00
2018-10-06T20:10:20.852Z,24.00
2018-10-06T20:12:49.498Z,24.20
2018-10-06T20:15:17.910Z,24.30
2018-10-06T20:17:46.840Z,24.20
2018-10-06T20:20:15.505Z,24.30
2018-10-06T20:22:44.582Z,24.20
2018-10-06T20:25:13.060Z,24.20
2018-10-06T20:27:41.684Z,24.20
2018-10-06T20:30:10.101Z,24.20
2018-10-06T20:32:38.652Z,24.20
2018-10-06T20:35:07.567Z,24.00
2018-10-06T20:37:36.052Z,24.00
2018-10-06T20:40:04.678Z,23.90
2018-10-06T20:42:33.425Z,24.10
2018-10-06T20:45:02.149Z,24.30
2018-10-06T20:47:30.774Z,24.20
2018-10-06T20:49:59.541Z,24.40
2018-10-06T20:52:28.129Z,24.50
2018-10-06T20:54:56.979Z,24.50
2018-10-06T20:57:25.511Z,24.50
2018-10-06T20:59:54.206Z,24.50
2018-10-06T21:02:23.786Z,24.40
2018-10-06T21:04:52.271Z,24.40
2018-10-06T21:07:20.379Z,24.40
2018-10-06T21:09:48.723Z,24.30
2018-10-06T21:12:16.829Z,24.30
2018-10-06T21:14:44.969Z,24.30
2018-10-06T21:17:13.097Z,24.30
2018-10-06T21:19:41.297Z,24.30
2018-10-06T21:22:09.483Z,24.30
2018-10-06T21:24:37.629Z,24.20
2018-10-06T21:27:06.111Z,24.20
2018-10-06T21:29:34.743Z,24.20
2018-10-06T21:32:02.859Z,24.10
2018-10-06T21:34:30.989Z,24.10
2018-10-06T21:36:59.177Z,24.00
2018-10-06T21:39:27.414Z,23.90
2018-10-06T21:41:55.939Z,23.60
2018-10-06T21:51:48.617Z,23.10
2018-10-06T22:01:40.572Z,22.80
2018-10-06T22:21:36.370Z,22.40
2018-10-06T22:24:04.509Z,22.50
2018-10-06T22:26:32.661Z,22.70
2018-10-06T22:29:00.904Z,22.70
2018-10-06T22:31:29.068Z,22.70
2018-10-06T22:33:57.532Z,22.70
2018-10-06T22:36:25.913Z,22.60
2018-10-06T22:38:54.808Z,22.50
2018-10-06T22:41:23.165Z,22.50
2018-10-06T22:43:51.724Z,22.50
2018-10-06T22:48:48.060Z,22.50
2018-10-06T22:51:16.309Z,22.40
2018-10-06T22:56:13.107Z,22.10
2018-10-06T22:58:41.243Z,22.20
2018-10-06T23:01:09.919Z,22.10
2018-10-06T23:03:38.272Z,22.00
2018-10-06T23:06:07.320Z,22.00
2018-10-06T23:13:31.384Z,21.80
2018-10-06T23:15:59.535Z,21.70
2018-10-06T23:18:27.680Z,21.60
2018-10-06T23:20:55.808Z,21.60
2018-10-06T23:23:24.029Z,21.50
2018-10-06T23:25:52.196Z,21.50
2018-10-06T23:28:20.672Z,21.40
2018-10-06T23:33:16.762Z,21.40
2018-10-06T23:35:44.913Z,21.30
2018-10-06T23:38:13.068Z,21.20
2018-10-06T23:43:09.912Z,21.10
2018-10-06T23:45:38.068Z,21.10
2018-10-06T23:48:06.992Z,21.00
2018-10-06T23:55:31.001Z,21.10
